Time;durP1;ratioP1;P1;durP2;ratioP2;P2;SDS_P1;SDS_P2;PMS_P1;PMS_P2;Temp;Humidity;BMP_temperature;BMP_pressure;BME280_temperature;BME280_humidity;BME280_pressure;Samples;Min_cycle;Max_cycle;Signal;HPM_P1;HPM_P2
2022/07/07 00:00:00;;;;;;;3.05;2.63;;;16.80;61.80;;;;;;5094814;28;20036;-65
2022/07/07 00:02:26;;;;;;;3.58;2.45;;;16.80;61.00;;;;;;5094891;28;20398;-64
2022/07/07 00:04:52;;;;;;;2.63;2.42;;;16.80;61.00;;;;;;5094006;28;20081;-65
2022/07/07 00:07:19;;;;;;;4.55;2.65;;;16.80;61.10;;;;;;5094763;28;20804;-65
2022/07/07 00:09:44;;;;;;;4.57;2.47;;;16.70;61.00;;;;;;5096810;28;20136;-66
2022/07/07 00:12:10;;;;;;;3.80;2.65;;;16.70;61.20;;;;;;5093893;28;20114;-65
2022/07/07 00:14:36;;;;;;;3.65;2.45;;;16.60;61.20;;;;;;5094857;28;20162;-65
2022/07/07 00:17:02;;;;;;;4.30;3.00;;;16.60;61.30;;;;;;5096089;28;20161;-65
2022/07/07 00:19:28;;;;;;;3.05;2.83;;;16.50;61.50;;;;;;5093915;28;20039;-65
2022/07/07 00:21:53;;;;;;;4.05;2.30;;;16.40;61.80;;;;;;5096533;28;20407;-66
2022/07/07 00:24:19;;;;;;;2.95;2.50;;;16.40;61.90;;;;;;5095932;28;20058;-64
2022/07/07 00:26:45;;;;;;;2.67;2.47;;;16.30;62.10;;;;;;5092954;28;20036;-66
2022/07/07 00:29:11;;;;;;;2.85;2.65;;;16.30;62.60;;;;;;5096174;28;20438;-65
2022/07/07 00:31:36;;;;;;;2.85;2.53;;;16.30;62.70;;;;;;5094328;28;20268;-65
2022/07/07 00:34:02;;;;;;;3.08;2.50;;;16.30;62.70;;;;;;5094382;28;20659;-65
2022/07/07 00:36:28;;;;;;;3.33;2.90;;;16.30;62.80;;;;;;5092696;28;20122;-65
2022/07/07 00:38:54;;;;;;;3.97;2.95;;;16.20;62.70;;;;;;5094250;28;20084;-66
2022/07/07 00:41:20;;;;;;;5.95;2.53;;;16.20;62.90;;;;;;5094086;28;20469;-65
2022/07/07 00:43:45;;;;;;;2.90;2.35;;;16.10;62.90;;;;;;5094416;28;20526;-65
2022/07/07 00:46:12;;;;;;;3.88;2.67;;;16.10;62.90;;;;;;5096558;28;20078;-65
2022/07/07 00:48:39;;;;;;;4.53;2.85;;;16.00;63.10;;;;;;5094052;28;20043;-65
2022/07/07 00:51:08;;;;;;;3.90;2.83;;;16.00;63.40;;;;;;5094387;28;20549;-65
2022/07/07 00:53:34;;;;;;;4.90;2.75;;;15.90;64.30;;;;;;5094197;28;20388;-66
2022/07/07 00:56:00;;;;;;;3.90;2.72;;;15.80;63.40;;;;;;5094008;28;20043;-65
2022/07/07 00:58:26;;;;;;;2.63;2.42;;;15.70;63.60;;;;;;5094608;28;20502;-64
2022/07/07 01:00:51;;;;;;;2.92;2.72;;;15.70;63.90;;;;;;5095578;28;20016;-64
2022/07/07 01:03:17;;;;;;;4.47;2.90;;;15.70;64.00;;;;;;5097249;28;20036;-63
2022/07/07 01:05:46;;;;;;;2.90;2.60;;;15.60;64.10;;;;;;5094095;28;20107;-66
2022/07/07 01:08:14;;;;;;;4.63;2.72;;;15.70;64.60;;;;;;5094933;28;20047;-65
2022/07/07 01:10:41;;;;;;;3.25;2.50;;;15.60;64.50;;;;;;5091765;28;20066;-65
2022/07/07 01:13:06;;;;;;;6.05;2.60;;;15.60;64.70;;;;;;5080229;28;20125;-66
2022/07/07 01:15:32;;;;;;;2.65;2.30;;;15.50;64.60;;;;;;5093622;28;20051;-65
2022/07/07 01:17:58;;;;;;;3.50;2.67;;;15.50;64.60;;;;;;5094223;28;20059;-64
2022/07/07 01:20:25;;;;;;;3.03;2.55;;;15.50;64.80;;;;;;5095627;28;20091;-66
2022/07/07 01:22:51;;;;;;;3.38;2.33;;;15.40;65.10;;;;;;5095343;28;20570;-64
2022/07/07 01:25:17;;;;;;;3.00;2.70;;;15.40;65.30;;;;;;5093455;28;20495;-65
2022/07/07 01:27:43;;;;;;;8.13;2.47;;;15.40;65.30;;;;;;5092820;28;20108;-65
2022/07/07 01:30:09;;;;;;;5.18;2.97;;;15.40;65.30;;;;;;5094213;28;20035;-65
2022/07/07 01:32:35;;;;;;;5.97;3.03;;;15.40;65.40;;;;;;5096894;28;20063;-65
2022/07/07 01:35:01;;;;;;;3.97;3.35;;;15.40;65.40;;;;;;5099282;28;20043;-65
2022/07/07 01:37:26;;;;;;;3.90;3.10;;;15.50;65.40;;;;;;5100346;28;20039;-65
2022/07/07 01:39:53;;;;;;;4.53;2.40;;;15.50;65.30;;;;;;5100381;28;20526;-65
2022/07/07 01:42:19;;;;;;;3.45;2.55;;;15.60;65.50;;;;;;5099876;28;20035;-65
2022/07/07 01:44:44;;;;;;;2.70;2.40;;;15.70;66.40;;;;;;5078403;28;20044;-66
2022/07/07 01:47:11;;;;;;;2.85;2.50;;;15.70;65.70;;;;;;5098161;28;20798;-66
2022/07/07 01:49:38;;;;;;;2.53;2.33;;;15.70;64.80;;;;;;5096289;28;20178;-64
2022/07/07 01:52:05;;;;;;;2.70;2.50;;;15.70;64.50;;;;;;5098458;28;20038;-65
2022/07/07 01:54:32;;;;;;;3.25;2.25;;;15.70;64.60;;;;;;5098133;28;20047;-65
2022/07/07 01:56:59;;;;;;;3.97;2.58;;;15.70;64.60;;;;;;5098637;28;21796;-65
2022/07/07 01:59:24;;;;;;;2.72;2.30;;;15.70;64.80;;;;;;5098488;28;20044;-64
2022/07/07 02:01:50;;;;;;;2.65;2.28;;;15.60;64.70;;;;;;5096213;28;20500;-65
2022/07/07 02:04:16;;;;;;;2.53;2.28;;;15.60;64.80;;;;;;5099398;28;20128;-65
2022/07/07 02:06:42;;;;;;;2.35;2.15;;;15.60;65.10;;;;;;5096711;28;20044;-65
2022/07/07 02:09:08;;;;;;;2.08;1.98;;;15.60;65.30;;;;;;5099050;28;20042;-65
2022/07/07 02:11:34;;;;;;;2.33;2.13;;;15.70;65.30;;;;;;5097543;27;20039;-65
2022/07/07 02:14:00;;;;;;;3.53;2.55;;;15.70;65.20;;;;;;5097318;28;20506;-65
2022/07/07 02:16:26;;;;;;;3.92;2.28;;;15.70;65.50;;;;;;5097584;28;20036;-65
2022/07/07 02:18:55;;;;;;;2.30;2.10;;;15.70;65.30;;;;;;5098634;28;20036;-64
2022/07/07 02:21:21;;;;;;;3.85;2.20;;;15.60;65.20;;;;;;5096922;28;20111;-65
2022/07/07 02:23:49;;;;;;;4.25;2.15;;;15.70;65.20;;;;;;5096006;28;20391;-64
2022/07/07 02:26:15;;;;;;;2.50;2.30;;;15.70;65.20;;;;;;5098740;28;20031;-65
2022/07/07 02:28:41;;;;;;;2.67;2.47;;;15.60;65.20;;;;;;5097639;28;20055;-65
2022/07/07 02:31:08;;;;;;;3.05;2.30;;;15.60;65.30;;;;;;5075593;28;20111;-65
2022/07/07 02:33:34;;;;;;;2.72;2.53;;;15.60;65.30;;;;;;5097826;28;20040;-65
2022/07/07 02:36:01;;;;;;;4.00;2.30;;;15.60;65.50;;;;;;5099564;28;20122;-65
2022/07/07 02:38:27;;;;;;;4.47;2.40;;;15.60;65.30;;;;;;5097483;28;20169;-65
2022/07/07 02:40:53;;;;;;;3.15;2.42;;;15.60;65.20;;;;;;5099377;28;20049;-65
2022/07/07 02:43:19;;;;;;;3.90;2.17;;;15.60;65.40;;;;;;5098323;28;20032;-65
2022/07/07 02:45:46;;;;;;;2.63;2.15;;;15.50;65.30;;;;;;5082810;28;20039;-65
2022/07/07 02:48:15;;;;;;;2.60;2.40;;;15.50;65.40;;;;;;5099227;28;20032;-65
2022/07/07 02:50:41;;;;;;;4.60;2.20;;;15.50;65.50;;;;;;5096569;28;20066;-65
2022/07/07 02:53:08;;;;;;;2.78;2.08;;;15.50;65.50;;;;;;5097151;28;20068;-66
2022/07/07 02:55:34;;;;;;;3.03;2.22;;;15.50;65.50;;;;;;5096504;28;20035;-66
2022/07/07 02:58:01;;;;;;;3.10;2.03;;;15.60;65.70;;;;;;5094575;28;20495;-65
2022/07/07 03:00:27;;;;;;;3.05;2.13;;;15.70;65.70;;;;;;5095540;28;20176;-65
2022/07/07 03:02:54;;;;;;;2.30;2.10;;;15.70;65.80;;;;;;5097856;28;20716;-65
2022/07/07 03:05:21;;;;;;;2.20;2.10;;;15.80;65.50;;;;;;5096964;28;20043;-64
2022/07/07 03:07:47;;;;;;;2.92;2.13;;;15.80;65.50;;;;;;5094590;28;20042;-65
2022/07/07 03:10:13;;;;;;;2.22;2.00;;;15.90;65.50;;;;;;5096757;28;20040;-65
2022/07/07 03:12:39;;;;;;;3.72;2.13;;;15.90;65.50;;;;;;5096695;28;20221;-65
2022/07/07 03:15:05;;;;;;;4.18;2.20;;;15.90;65.50;;;;;;5098434;28;20043;-65
2022/07/07 03:17:31;;;;;;;3.60;2.28;;;15.90;65.50;;;;;;5095261;28;22402;-64
2022/07/07 03:19:56;;;;;;;2.78;2.30;;;15.90;65.50;;;;;;5097221;28;20058;-66
2022/07/07 03:22:22;;;;;;;3.95;2.30;;;15.90;65.30;;;;;;5096759;28;20538;-65
2022/07/07 03:24:48;;;;;;;3.03;2.13;;;15.80;66.20;;;;;;5083869;28;20039;-66
2022/07/07 03:27:13;;;;;;;2.60;2.20;;;15.80;65.70;;;;;;5097082;28;20092;-65
2022/07/07 03:29:39;;;;;;;3.25;2.25;;;15.80;65.60;;;;;;5095549;27;20468;-65
2022/07/07 03:32:05;;;;;;;4.43;1.98;;;15.70;65.70;;;;;;5095138;28;20559;-65
2022/07/07 03:34:31;;;;;;;1.85;1.75;;;15.70;65.60;;;;;;5095153;28;20143;-66
2022/07/07 03:36:57;;;;;;;2.70;2.00;;;15.70;65.70;;;;;;5096409;28;20032;-65
2022/07/07 03:39:22;;;;;;;2.17;1.92;;;15.70;65.70;;;;;;5097080;28;20503;-65
2022/07/07 03:41:48;;;;;;;3.85;1.88;;;15.70;65.50;;;;;;5098750;28;20154;-65
2022/07/07 03:44:14;;;;;;;1.67;1.58;;;15.70;65.50;;;;;;5096160;28;20530;-65
2022/07/07 03:46:39;;;;;;;2.58;1.75;;;15.70;65.50;;;;;;5096221;28;20034;-66
2022/07/07 03:49:05;;;;;;;1.90;1.80;;;15.70;65.50;;;;;;5097328;28;20070;-65
2022/07/07 03:51:30;;;;;;;2.17;1.85;;;15.70;65.70;;;;;;5095663;28;20225;-66
2022/07/07 03:53:56;;;;;;;1.90;1.80;;;15.70;65.70;;;;;;5095278;28;20042;-65
2022/07/07 03:56:22;;;;;;;3.50;1.85;;;15.70;65.90;;;;;;5095582;28;20028;-66
2022/07/07 03:58:47;;;;;;;1.73;1.63;;;15.80;65.90;;;;;;5095558;28;20349;-66
2022/07/07 04:01:13;;;;;;;2.17;1.83;;;15.80;65.90;;;;;;5096978;28;20136;-65
2022/07/07 04:03:39;;;;;;;4.55;1.95;;;15.80;65.80;;;;;;5079163;28;20047;-64
2022/07/07 04:06:05;;;;;;;3.35;1.80;;;15.90;65.80;;;;;;5095165;28;20102;-65
2022/07/07 04:08:31;;;;;;;2.03;1.90;;;15.90;65.70;;;;;;5094499;28;20036;-65
2022/07/07 04:10:57;;;;;;;3.33;1.77;;;15.90;66.60;;;;;;5095810;27;20040;-65
2022/07/07 04:13:22;;;;;;;3.47;1.73;;;15.90;65.70;;;;;;5095705;28;20034;-65
2022/07/07 04:15:48;;;;;;;3.85;1.60;;;16.00;65.70;;;;;;5094220;28;20035;-65
2022/07/07 04:18:13;;;;;;;2.03;1.70;;;16.00;65.80;;;;;;5096356;28;20024;-65
2022/07/07 04:20:39;;;;;;;2.05;1.80;;;16.10;65.90;;;;;;5092392;28;20031;-65
2022/07/07 04:23:05;;;;;;;3.85;1.90;;;16.10;66.40;;;;;;5093377;28;20499;-65
2022/07/07 04:25:30;;;;;;;2.28;1.63;;;16.10;65.90;;;;;;5093102;28;20663;-66
2022/07/07 04:27:56;;;;;;;2.10;1.90;;;16.10;65.90;;;;;;5091209;28;20032;-65
2022/07/07 04:30:22;;;;;;;2.30;2.10;;;16.10;65.90;;;;;;5081354;28;20036;-65
2022/07/07 04:32:47;;;;;;;2.72;1.80;;;16.20;65.70;;;;;;5089144;28;20040;-66
2022/07/07 04:35:13;;;;;;;2.13;1.73;;;16.20;65.60;;;;;;5094305;28;20032;-63
2022/07/07 04:37:38;;;;;;;2.95;1.98;;;16.20;65.50;;;;;;5089777;28;20036;-64
2022/07/07 04:40:05;;;;;;;2.25;1.98;;;16.10;65.30;;;;;;5091064;28;20046;-64
2022/07/07 04:42:30;;;;;;;2.28;1.85;;;16.20;65.30;;;;;;5092212;28;20419;-64
2022/07/07 04:44:56;;;;;;;2.72;2.20;;;16.20;65.30;;;;;;5095109;28;20494;-64
2022/07/07 04:47:22;;;;;;;3.28;2.00;;;16.20;65.40;;;;;;5094070;28;20043;-65
2022/07/07 04:49:51;;;;;;;2.50;2.20;;;16.20;65.30;;;;;;5089996;28;20039;-64
2022/07/07 04:52:16;;;;;;;3.55;2.00;;;16.30;65.40;;;;;;5096375;28;20047;-65
2022/07/07 04:54:42;;;;;;;3.47;1.90;;;16.30;65.20;;;;;;5094437;28;20027;-65
2022/07/07 04:57:07;;;;;;;4.60;2.15;;;16.30;65.20;;;;;;5095728;28;20494;-64
2022/07/07 04:59:33;;;;;;;5.85;2.17;;;16.40;65.40;;;;;;5096456;28;20036;-63
2022/07/07 05:01:59;;;;;;;8.18;2.10;;;16.40;65.40;;;;;;5094437;28;20594;-63
2022/07/07 05:04:24;;;;;;;5.65;2.20;;;16.40;65.50;;;;;;5094422;28;20031;-64
2022/07/07 05:06:50;;;;;;;13.15;2.50;;;16.50;65.50;;;;;;5093893;28;20059;-64
2022/07/07 05:09:16;;;;;;;11.65;2.33;;;16.50;65.40;;;;;;5094932;28;20111;-64
2022/07/07 05:11:41;;;;;;;11.15;2.08;;;16.60;65.30;;;;;;5096445;27;20039;-64
2022/07/07 05:14:07;;;;;;;7.25;2.22;;;16.60;65.30;;;;;;5098301;27;20572;-64
2022/07/07 05:16:33;;;;;;;4.32;2.20;;;16.60;66.40;;;;;;5097750;27;20436;-64
2022/07/07 05:18:59;;;;;;;4.25;1.98;;;16.60;65.60;;;;;;5098654;28;20127;-65
2022/07/07 05:21:24;;;;;;;7.10;2.05;;;16.70;65.60;;;;;;5098671;27;20035;-65
2022/07/07 05:23:50;;;;;;;4.90;1.80;;;16.70;65.20;;;;;;5097557;28;20032;-64
2022/07/07 05:26:16;;;;;;;9.15;2.10;;;16.80;64.90;;;;;;5097936;27;20039;-65
2022/07/07 05:28:41;;;;;;;6.93;1.80;;;16.80;64.50;;;;;;5097517;27;20572;-65
2022/07/07 05:31:12;;;;;;;5.25;1.95;;;16.90;64.30;;;;;;5097312;28;20040;-64
2022/07/07 05:33:38;;;;;;;3.72;1.85;;;16.90;64.40;;;;;;5099100;27;20057;-64
2022/07/07 05:36:05;;;;;;;3.20;1.83;;;16.90;65.20;;;;;;5097995;28;20042;-63
2022/07/07 05:38:31;;;;;;;4.57;2.17;;;17.00;64.40;;;;;;5097857;27;20040;-64
2022/07/07 05:40:57;;;;;;;6.85;2.30;;;17.00;64.60;;;;;;5097930;27;20395;-64
2022/07/07 05:43:23;;;;;;;3.30;1.90;;;17.00;64.60;;;;;;5092943;28;20035;-65
2022/07/07 05:45:48;;;;;;;4.50;2.58;;;17.10;64.50;;;;;;5094899;28;20028;-64
2022/07/07 05:48:14;;;;;;;4.22;2.22;;;17.10;64.40;;;;;;5098312;28;20522;-64
2022/07/07 05:50:40;;;;;;;4.00;1.90;;;17.10;64.60;;;;;;5095540;28;20741;-65
2022/07/07 05:53:05;;;;;;;6.35;2.15;;;17.10;64.80;;;;;;5097562;28;20134;-64
2022/07/07 05:55:31;;;;;;;3.85;2.03;;;17.20;65.20;;;;;;5095106;28;20040;-64
2022/07/07 05:57:57;;;;;;;6.32;1.95;;;17.20;65.20;;;;;;5097829;28;20035;-64
2022/07/07 06:00:24;;;;;;;3.03;2.15;;;17.20;65.10;;;;;;5098239;28;20059;-64
2022/07/07 06:02:50;;;;;;;3.20;2.08;;;17.30;65.20;;;;;;5097895;28;20031;-64
2022/07/07 06:05:16;;;;;;;3.22;1.85;;;17.30;65.00;;;;;;5098202;28;20046;-64
2022/07/07 06:07:42;;;;;;;5.68;2.00;;;17.30;65.10;;;;;;5096944;28;20043;-65
2022/07/07 06:10:10;;;;;;;3.95;1.77;;;17.40;65.00;;;;;;5097182;28;20156;-64
2022/07/07 06:12:36;;;;;;;3.75;1.58;;;17.40;64.70;;;;;;5098160;28;20086;-65
2022/07/07 06:15:02;;;;;;;2.53;1.50;;;17.50;64.30;;;;;;5098559;28;20069;-64
2022/07/07 06:17:28;;;;;;;5.75;1.73;;;17.50;64.00;;;;;;5097249;28;20414;-64
2022/07/07 06:19:54;;;;;;;5.35;1.50;;;17.60;63.90;;;;;;5096258;28;20036;-65
2022/07/07 06:22:19;;;;;;;2.30;1.40;;;17.60;63.60;;;;;;5099571;28;20066;-65
2022/07/07 06:24:45;;;;;;;5.45;1.73;;;17.70;63.30;;;;;;5097771;28;20127;-65
2022/07/07 06:27:11;;;;;;;2.35;1.10;;;17.70;62.90;;;;;;5097793;28;20043;-64
2022/07/07 06:29:37;;;;;;;3.05;1.30;;;17.80;62.60;;;;;;5096158;28;20063;-65
2022/07/07 06:32:03;;;;;;;2.38;1.45;;;17.90;62.50;;;;;;5097171;28;20195;-64
2022/07/07 06:34:29;;;;;;;1.85;1.33;;;18.00;62.30;;;;;;5097810;28;20189;-64
2022/07/07 06:36:54;;;;;;;4.32;1.40;;;18.00;61.90;;;;;;5097548;28;20573;-65
2022/07/07 06:39:20;;;;;;;1.73;1.20;;;18.20;61.70;;;;;;5095878;28;20570;-65
2022/07/07 06:41:46;;;;;;;1.35;1.15;;;18.20;61.60;;;;;;5095363;28;20610;-64
2022/07/07 06:44:12;;;;;;;1.13;1.02;;;18.30;61.10;;;;;;5096718;28;20087;-64
2022/07/07 06:46:39;;;;;;;2.67;1.20;;;18.30;60.70;;;;;;5096552;28;20155;-64
2022/07/07 06:49:05;;;;;;;3.20;0.98;;;18.40;60.40;;;;;;5097766;28;20063;-64
2022/07/07 06:51:31;;;;;;;1.50;1.05;;;18.40;60.10;;;;;;5098446;28;20058;-65
2022/07/07 06:53:58;;;;;;;2.90;1.00;;;18.50;60.50;;;;;;5097561;28;20518;-65
2022/07/07 06:56:23;;;;;;;2.60;1.17;;;18.50;60.50;;;;;;5097883;28;20350;-65
2022/07/07 06:58:49;;;;;;;1.70;1.00;;;18.60;60.50;;;;;;5096356;28;20547;-65
2022/07/07 07:01:15;;;;;;;9.48;0.98;;;18.70;60.60;;;;;;5098063;28;20099;-65
2022/07/07 07:03:41;;;;;;;5.90;1.02;;;18.80;60.50;;;;;;5096503;28;20089;-65
2022/07/07 07:06:07;;;;;;;1.95;1.10;;;18.90;60.00;;;;;;5094391;28;20065;-64
2022/07/07 07:08:33;;;;;;;3.47;1.30;;;19.00;59.80;;;;;;5096309;28;20059;-64
2022/07/07 07:10:59;;;;;;;1.45;1.08;;;19.10;59.40;;;;;;5095144;27;20439;-66
2022/07/07 07:13:24;;;;;;;1.52;0.95;;;19.20;59.20;;;;;;5098665;28;20047;-65
2022/07/07 07:15:50;;;;;;;2.13;1.00;;;19.30;59.00;;;;;;5096305;28;20491;-66
2022/07/07 07:18:16;;;;;;;1.20;0.90;;;19.40;59.20;;;;;;5095485;27;20088;-65
2022/07/07 07:20:41;;;;;;;2.50;1.00;;;19.50;58.90;;;;;;5096551;28;20055;-65
2022/07/07 07:23:07;;;;;;;2.15;1.42;;;19.60;58.70;;;;;;5095894;28;20035;-65
2022/07/07 07:25:33;;;;;;;2.08;0.85;;;19.70;58.30;;;;;;5098132;28;20024;-63
2022/07/07 07:27:58;;;;;;;2.00;0.90;;;19.70;58.00;;;;;;5096343;28;20063;-65
2022/07/07 07:30:24;;;;;;;2.45;1.08;;;19.80;58.20;;;;;;5093896;28;20047;-66
2022/07/07 07:32:50;;;;;;;1.83;1.05;;;19.90;57.80;;;;;;5094243;28;20043;-63
2022/07/07 07:35:16;;;;;;;2.60;0.88;;;20.00;57.30;;;;;;5092314;28;20483;-65
2022/07/07 07:37:42;;;;;;;2.30;1.00;;;20.10;57.70;;;;;;5097657;28;20557;-64
2022/07/07 07:40:10;;;;;;;4.78;1.00;;;20.10;57.60;;;;;;5080076;28;20109;-65
2022/07/07 07:42:36;;;;;;;1.92;0.80;;;20.30;57.50;;;;;;5095622;28;20039;-64
2022/07/07 07:45:09;;;;;;;8.68;1.00;;;20.30;57.20;;;;;;5094213;28;20802;-64
2022/07/07 07:47:47;;;;;;;2.08;0.85;;;20.50;57.10;;;;;;5096525;28;20034;-65
2022/07/07 07:50:15;;;;;;;2.70;1.00;;;20.60;56.40;;;;;;5095646;28;20046;-64
2022/07/07 07:52:42;;;;;;;2.17;1.00;;;20.70;56.40;;;;;;5095916;27;20533;-65
2022/07/07 07:55:10;;;;;;;1.38;0.90;;;20.70;55.90;;;;;;5097364;28;20533;-64
2022/07/07 07:57:36;;;;;;;1.67;0.90;;;20.80;55.90;;;;;;5096320;28;20035;-65
2022/07/07 08:00:04;;;;;;;1.52;0.90;;;20.80;55.50;;;;;;5093074;28;20040;-64
2022/07/07 08:02:30;;;;;;;1.23;0.80;;;20.90;55.40;;;;;;5089482;27;20044;-64
2022/07/07 08:04:55;;;;;;;1.23;0.90;;;20.90;55.10;;;;;;5096808;28;20069;-64
2022/07/07 08:07:21;;;;;;;2.63;0.98;;;20.90;55.00;;;;;;5095119;28;20138;-64
2022/07/07 08:09:46;;;;;;;1.88;1.20;;;20.90;54.60;;;;;;5097829;28;20032;-64
2022/07/07 08:12:12;;;;;;;1.38;1.05;;;21.00;54.60;;;;;;5094695;28;20081;-64
2022/07/07 08:14:38;;;;;;;1.20;1.05;;;21.00;54.50;;;;;;5097512;28;20119;-65
2022/07/07 08:17:03;;;;;;;1.83;1.17;;;21.00;54.70;;;;;;5096345;28;20582;-65
2022/07/07 08:19:30;;;;;;;2.45;1.00;;;21.00;54.90;;;;;;5094012;28;20059;-65
2022/07/07 08:21:56;;;;;;;2.63;0.90;;;21.00;54.80;;;;;;5095690;28;20036;-66
2022/07/07 08:24:22;;;;;;;1.10;1.00;;;21.10;54.90;;;;;;5096099;28;20571;-66
2022/07/07 08:26:47;;;;;;;1.25;0.90;;;21.10;54.80;;;;;;5095589;28;20039;-64
2022/07/07 08:29:13;;;;;;;1.85;1.10;;;21.10;55.00;;;;;;5095503;28;20032;-64
2022/07/07 08:31:39;;;;;;;3.35;1.23;;;21.10;54.80;;;;;;5095226;28;21176;-63
2022/07/07 08:34:05;;;;;;;3.38;1.17;;;21.20;55.00;;;;;;5093829;28;20478;-64
2022/07/07 08:36:30;;;;;;;3.03;1.30;;;21.30;54.80;;;;;;5094364;28;20036;-63
2022/07/07 08:38:57;;;;;;;2.22;1.27;;;21.30;54.80;;;;;;5095081;28;20054;-64
2022/07/07 08:41:24;;;;;;;3.92;1.15;;;21.30;54.80;;;;;;5080003;28;20520;-63
2022/07/07 08:43:50;;;;;;;2.13;1.20;;;21.40;54.90;;;;;;5090216;27;20513;-63
2022/07/07 08:46:17;;;;;;;5.05;1.50;;;21.40;54.30;;;;;;5096307;28;20048;-63
2022/07/07 08:48:43;;;;;;;3.70;1.33;;;21.40;54.80;;;;;;5096368;28;20066;-64
2022/07/07 08:51:09;;;;;;;1.73;1.42;;;21.50;54.50;;;;;;5094838;28;20051;-64
2022/07/07 08:53:38;;;;;;;4.20;1.30;;;21.50;53.80;;;;;;5097765;28;20032;-63
2022/07/07 08:56:07;;;;;;;5.80;1.50;;;21.60;54.00;;;;;;5095174;28;20470;-63
2022/07/07 08:58:37;;;;;;;3.42;1.15;;;21.60;53.30;;;;;;5093977;28;20067;-64
2022/07/07 09:01:04;;;;;;;4.38;1.40;;;21.60;53.90;;;;;;5094341;28;20044;-65
2022/07/07 09:03:30;;;;;;;1.73;1.33;;;21.60;54.00;;;;;;5095012;28;20150;-64
2022/07/07 09:05:59;;;;;;;2.53;1.30;;;21.60;54.70;;;;;;5096518;28;20126;-64
2022/07/07 09:08:27;;;;;;;2.33;1.30;;;21.60;55.60;;;;;;5095686;28;20046;-64
2022/07/07 09:10:53;;;;;;;3.63;1.25;;;21.60;55.90;;;;;;5092799;28;20040;-64
2022/07/07 09:13:29;;;;;;;1.73;1.00;;;21.70;56.80;;;;;;5097217;28;20119;-65
2022/07/07 09:16:04;;;;;;;2.63;1.35;;;21.70;56.70;;;;;;5094362;28;20112;-64
2022/07/07 09:18:35;;;;;;;1.95;1.20;;;21.70;56.40;;;;;;5096171;28;20676;-64
2022/07/07 09:21:07;;;;;;;2.22;1.25;;;21.70;55.80;;;;;;5093769;28;20047;-64
2022/07/07 09:23:33;;;;;;;2.92;1.10;;;21.80;55.00;;;;;;5093569;28;20355;-64
2022/07/07 09:26:00;;;;;;;1.13;0.88;;;21.80;55.50;;;;;;5094400;28;20028;-64
2022/07/07 09:28:27;;;;;;;1.80;1.10;;;21.80;55.10;;;;;;5095322;28;20035;-64
2022/07/07 09:30:54;;;;;;;3.20;1.20;;;21.90;55.10;;;;;;5094314;28;20055;-64
2022/07/07 09:33:25;;;;;;;1.52;1.02;;;21.90;54.90;;;;;;5094588;28;20040;-65
2022/07/07 09:38:39;;;;;;;2.13;1.10;;;22.10;53.70;;;;;;5094262;28;20115;-64
2022/07/07 09:41:13;;;;;;;1.95;1.38;;;22.10;53.90;;;;;;5095681;28;20028;-65
2022/07/07 09:43:39;;;;;;;2.97;1.27;;;22.10;53.00;;;;;;5076972;28;20032;-64
2022/07/07 09:46:15;;;;;;;2.50;1.30;;;22.10;53.30;;;;;;5093964;28;20028;-65
2022/07/07 09:48:44;;;;;;;1.58;1.25;;;22.10;53.30;;;;;;5095718;28;20499;-64
2022/07/07 09:51:15;;;;;;;1.55;1.08;;;22.10;53.70;;;;;;5094721;28;20038;-65
2022/07/07 09:54:07;;;;;;;1.08;1.00;;;22.10;53.50;;;;;;5096880;28;20039;-64
2022/07/07 09:56:41;;;;;;;1.65;1.10;;;22.10;53.20;;;;;;5098290;27;20040;-65
2022/07/07 09:59:19;;;;;;;2.20;1.23;;;22.10;54.20;;;;;;5096183;28;20126;-66
2022/07/07 10:01:46;;;;;;;1.95;1.25;;;22.20;54.00;;;;;;5091547;28;20035;-65
2022/07/07 10:04:14;;;;;;;1.10;0.90;;;22.30;54.00;;;;;;5094136;28;20036;-64
2022/07/07 10:06:42;;;;;;;1.73;1.17;;;22.30;54.00;;;;;;5098558;27;20028;-65
2022/07/07 10:09:10;;;;;;;1.50;1.00;;;22.40;53.90;;;;;;5100089;27;20031;-65
2022/07/07 10:11:44;;;;;;;1.38;1.00;;;22.40;53.10;;;;;;5099636;27;20062;-64
2022/07/07 10:14:13;;;;;;;2.13;1.40;;;22.50;53.80;;;;;;5100541;28;20027;-65
2022/07/07 10:16:40;;;;;;;1.63;1.25;;;22.50;52.60;;;;;;5098713;28;20036;-65
2022/07/07 10:19:09;;;;;;;1.02;0.90;;;22.50;52.30;;;;;;5097937;28;20032;-65
2022/07/07 10:21:35;;;;;;;1.95;1.00;;;22.50;52.50;;;;;;5096653;28;20058;-65
2022/07/07 10:24:01;;;;;;;2.28;1.10;;;22.50;52.40;;;;;;5097610;27;20035;-65
2022/07/07 10:26:41;;;;;;;1.83;0.98;;;22.50;52.60;;;;;;5096297;28;20126;-65
2022/07/07 10:29:08;;;;;;;0.77;0.70;;;22.50;52.70;;;;;;5096770;28;20031;-65
2022/07/07 10:31:35;;;;;;;7.75;1.20;;;22.50;52.50;;;;;;5096193;28;20577;-65
2022/07/07 10:34:12;;;;;;;0.98;0.90;;;22.50;52.70;;;;;;5095985;28;20058;-65
2022/07/07 10:36:49;;;;;;;1.75;0.80;;;22.50;52.40;;;;;;5095158;28;20123;-65
2022/07/07 10:39:26;;;;;;;3.00;1.00;;;22.50;52.30;;;;;;5096385;28;20036;-64
2022/07/07 10:42:05;;;;;;;0.80;0.80;;;22.50;52.40;;;;;;5099226;28;20406;-65
2022/07/07 10:44:36;;;;;;;2.75;0.82;;;22.50;52.30;;;;;;5097933;28;20122;-65
2022/07/07 10:47:24;;;;;;;0.98;0.88;;;22.40;53.20;;;;;;5097979;28;20081;-65
2022/07/07 10:49:52;;;;;;;2.17;0.82;;;22.40;52.40;;;;;;5098035;27;20028;-65
2022/07/07 10:52:26;;;;;;;1.92;0.93;;;22.40;53.10;;;;;;5098372;28;20036;-65
2022/07/07 10:54:55;;;;;;;1.73;0.90;;;22.40;53.10;;;;;;5097600;28;20053;-64
2022/07/07 10:57:22;;;;;;;1.40;1.00;;;22.40;53.40;;;;;;5097238;28;20035;-66
2022/07/07 11:00:09;;;;;;;2.75;0.80;;;22.40;54.10;;;;;;5098409;28;20513;-65
2022/07/07 11:02:35;;;;;;;3.28;0.80;;;22.50;52.90;;;;;;5096723;28;20123;-64
2022/07/07 11:05:03;;;;;;;1.40;0.85;;;22.50;52.80;;;;;;5097992;28;20040;-65
2022/07/07 11:07:29;;;;;;;2.00;1.20;;;22.50;53.00;;;;;;5097685;28;20028;-64
2022/07/07 11:10:00;;;;;;;2.33;0.90;;;22.50;52.70;;;;;;5097330;28;20088;-66
2022/07/07 11:12:50;;;;;;;2.05;0.85;;;22.50;53.00;;;;;;5096152;28;20537;-64
2022/07/07 11:15:20;;;;;;;1.30;1.00;;;22.50;52.90;;;;;;5097643;28;20062;-65
2022/07/07 11:17:46;;;;;;;0.90;0.80;;;22.40;53.20;;;;;;5098138;28;20411;-65
2022/07/07 11:20:17;;;;;;;3.30;0.82;;;22.40;53.40;;;;;;5097492;28;20051;-65
2022/07/07 11:22:51;;;;;;;1.33;1.00;;;22.40;53.40;;;;;;5097019;27;20524;-65
2022/07/07 11:25:24;;;;;;;0.82;0.70;;;22.50;53.50;;;;;;5097017;28;20494;-64
2022/07/07 11:27:51;;;;;;;1.63;0.90;;;22.50;52.80;;;;;;5097709;27;20479;-65
2022/07/07 11:30:21;;;;;;;2.53;0.80;;;22.50;53.00;;;;;;5098384;28;20039;-65
2022/07/07 11:32:47;;;;;;;3.03;0.80;;;22.50;53.20;;;;;;5097672;27;20123;-65
2022/07/07 11:35:13;;;;;;;1.48;0.80;;;22.50;53.10;;;;;;5079842;28;20028;-65
2022/07/07 11:37:42;;;;;;;2.78;1.00;;;22.50;53.50;;;;;;5098631;28;20042;-64
2022/07/07 11:40:13;;;;;;;1.25;0.70;;;22.50;53.70;;;;;;5083836;28;20032;-64
2022/07/07 11:42:43;;;;;;;1.00;0.60;;;22.40;53.10;;;;;;5096220;28;20064;-66
2022/07/07 11:45:22;;;;;;;0.70;0.70;;;22.50;53.00;;;;;;5096156;28;20225;-66
2022/07/07 11:47:52;;;;;;;2.55;0.80;;;22.50;53.00;;;;;;5097662;28;20097;-63
2022/07/07 11:50:18;;;;;;;1.67;0.70;;;22.40;52.60;;;;;;5097607;28;20498;-64
2022/07/07 11:52:49;;;;;;;0.80;0.70;;;22.30;52.60;;;;;;5096019;28;20481;-66
2022/07/07 11:55:17;;;;;;;1.30;0.80;;;22.30;52.30;;;;;;5096806;28;20218;-65
2022/07/07 11:57:49;;;;;;;1.02;0.85;;;22.20;52.50;;;;;;5097766;28;20032;-65
2022/07/07 12:00:18;;;;;;;2.55;1.00;;;22.10;52.60;;;;;;5095075;28;20510;-65
2022/07/07 12:02:46;;;;;;;2.15;1.10;;;22.00;53.10;;;;;;5097263;28;20035;-65
2022/07/07 12:05:14;;;;;;;0.73;0.70;;;21.90;53.40;;;;;;5095835;28;20278;-64
2022/07/07 12:07:43;;;;;;;4.40;0.80;;;21.90;54.00;;;;;;5096765;28;20155;-65
2022/07/07 12:10:23;;;;;;;1.35;0.82;;;21.80;53.90;;;;;;5093332;28;20392;-65
2022/07/07 12:13:08;;;;;;;2.08;0.90;;;21.90;54.20;;;;;;5095649;28;20084;-65
2022/07/07 12:15:38;;;;;;;1.42;1.02;;;21.90;54.90;;;;;;5096815;28;20044;-66
2022/07/07 12:18:05;;;;;;;1.65;1.00;;;21.90;54.30;;;;;;5095504;28;20035;-65
2022/07/07 12:20:32;;;;;;;1.20;0.95;;;21.90;54.10;;;;;;5094806;27;20032;-65
2022/07/07 12:22:59;;;;;;;1.17;0.93;;;21.90;54.00;;;;;;5093590;28;20035;-65
2022/07/07 12:25:31;;;;;;;0.80;0.80;;;22.00;54.20;;;;;;5094324;28;20032;-65
2022/07/07 12:28:02;;;;;;;1.52;0.93;;;22.00;54.50;;;;;;5093027;28;20501;-64
2022/07/07 12:30:31;;;;;;;1.38;0.90;;;22.10;55.00;;;;;;5094716;28;20150;-65
2022/07/07 12:32:57;;;;;;;2.75;1.17;;;22.10;54.60;;;;;;5093012;28;20035;-65
2022/07/07 12:35:33;;;;;;;0.80;0.70;;;22.20;54.30;;;;;;5092549;28;20032;-66
2022/07/07 12:38:02;;;;;;;1.83;1.13;;;22.40;54.00;;;;;;5094175;28;20101;-65
2022/07/07 12:40:29;;;;;;;1.25;1.00;;;22.50;53.80;;;;;;5093893;28;20566;-65
2022/07/07 12:42:56;;;;;;;1.55;0.90;;;22.50;53.60;;;;;;5092250;28;20491;-66
2022/07/07 12:45:23;;;;;;;4.72;1.00;;;22.60;53.40;;;;;;5091514;28;20115;-65
2022/07/07 12:47:55;;;;;;;2.35;0.85;;;22.70;53.00;;;;;;5093312;28;20572;-63